createdAt,value
2022-10-17T00:00:31.883Z,9.111111111111143
2022-10-17T00:01:32.089Z,9.111111111111143
2022-10-17T00:02:31.895Z,9.111111111111143
2022-10-17T00:03:31.297Z,9.222222222222285
2022-10-17T00:04:31.937Z,9.222222222222285
2022-10-17T00:05:31.900Z,9.222222222222285
2022-10-17T00:06:31.926Z,9.222222222222285
2022-10-17T00:07:31.511Z,9.222222222222285
2022-10-17T00:08:31.904Z,9.222222222222285
2022-10-17T00:09:31.938Z,9.222222222222285
2022-10-17T00:10:31.916Z,9.222222222222285
2022-10-17T00:11:31.324Z,9.222222222222285
2022-10-17T00:12:31.897Z,9.222222222222285
2022-10-17T00:14:31.902Z,9.222222222222285
2022-10-17T00:15:31.312Z,9.277777777777828
2022-10-17T00:16:31.877Z,9.222222222222285
2022-10-17T00:17:31.878Z,9.277777777777828
2022-10-17T00:18:32.008Z,9.277777777777828
2022-10-17T00:19:31.287Z,9.277777777777828
2022-10-17T00:20:31.908Z,9.277777777777828
2022-10-17T00:21:31.889Z,9.277777777777828
2022-10-17T00:22:31.939Z,9.277777777777828
2022-10-17T00:23:31.317Z,9.277777777777828
2022-10-17T00:24:31.879Z,9.277777777777828
2022-10-17T00:25:32.040Z,9.277777777777828
2022-10-17T00:26:31.922Z,9.277777777777828
2022-10-17T00:27:31.289Z,9.277777777777828
2022-10-17T00:28:31.957Z,9.277777777777828
2022-10-17T00:29:31.910Z,9.388888888888914
2022-10-17T00:30:31.911Z,9.388888888888914
2022-10-17T00:31:31.303Z,9.388888888888914
2022-10-17T00:32:32.050Z,9.388888888888914
2022-10-17T00:33:31.916Z,9.388888888888914
2022-10-17T00:34:31.877Z,9.388888888888914
2022-10-17T00:35:31.275Z,9.500000000000057
2022-10-17T00:36:31.900Z,9.500000000000057
2022-10-17T00:37:31.891Z,9.500000000000057
2022-10-17T00:38:31.898Z,9.500000000000057
2022-10-17T00:39:31.283Z,9.500000000000057
2022-10-17T00:40:31.879Z,9.500000000000057
2022-10-17T00:41:31.884Z,9.611111111111143
2022-10-17T00:42:31.877Z,9.611111111111143
2022-10-17T00:43:31.282Z,9.611111111111143
2022-10-17T00:44:31.918Z,9.611111111111143
2022-10-17T00:45:31.885Z,9.611111111111143
2022-10-17T00:46:31.889Z,9.722222222222285
2022-10-17T00:47:31.394Z,9.722222222222285
2022-10-17T00:48:31.895Z,9.722222222222285
2022-10-17T00:49:31.901Z,9.722222222222285
2022-10-17T00:50:31.944Z,9.722222222222285
2022-10-17T00:51:31.237Z,9.722222222222285
2022-10-17T00:52:32.166Z,9.722222222222285
2022-10-17T00:53:31.921Z,9.722222222222285
2022-10-17T00:54:31.914Z,9.722222222222285
2022-10-17T00:55:31.262Z,9.722222222222285
2022-10-17T00:56:31.887Z,9.722222222222285
2022-10-17T00:57:31.878Z,9.722222222222285
2022-10-17T00:58:31.887Z,9.777777777777828
2022-10-17T00:59:31.255Z,9.777777777777828
2022-10-17T01:00:31.899Z,9.777777777777828
2022-10-17T01:01:31.932Z,9.777777777777828
2022-10-17T01:02:31.897Z,9.777777777777828
2022-10-17T01:03:31.265Z,9.777777777777828
2022-10-17T01:04:31.912Z,9.888888888888914
2022-10-17T01:05:31.881Z,9.888888888888914
2022-10-17T01:06:31.891Z,9.888888888888914
2022-10-17T01:07:34.645Z,9.888888888888914
2022-10-17T01:08:31.955Z,9.888888888888914
2022-10-17T01:09:31.896Z,9.888888888888914
2022-10-17T01:10:31.880Z,9.888888888888914
2022-10-17T01:11:31.249Z,9.888888888888914
2022-10-17T01:12:31.883Z,9.888888888888914
2022-10-17T01:13:31.896Z,9.888888888888914
2022-10-17T01:14:31.909Z,9.888888888888914
2022-10-17T01:15:31.299Z,9.888888888888914
2022-10-17T01:16:31.914Z,9.888888888888914
2022-10-17T01:17:31.893Z,9.888888888888914
2022-10-17T01:18:31.920Z,9.888888888888914
2022-10-17T01:19:31.209Z,9.888888888888914
2022-10-17T01:20:31.883Z,9.888888888888914
2022-10-17T01:21:31.883Z,9.888888888888914
2022-10-17T01:22:31.893Z,9.888888888888914
2022-10-17T01:23:31.206Z,9.888888888888914
2022-10-17T01:24:31.900Z,9.888888888888914
2022-10-17T01:25:32.080Z,9.888888888888914
2022-10-17T01:26:31.939Z,10.000000000000057
2022-10-17T01:27:31.238Z,10.000000000000057
2022-10-17T01:28:32.004Z,10.000000000000057
2022-10-17T01:29:31.891Z,10.000000000000057
2022-10-17T01:30:31.896Z,10.000000000000057
2022-10-17T01:31:31.220Z,10.000000000000057
2022-10-17T01:32:31.880Z,10.000000000000057
2022-10-17T01:33:31.899Z,10.000000000000057
2022-10-17T01:34:31.878Z,10.000000000000057
2022-10-17T01:35:31.214Z,10.000000000000057
2022-10-17T01:36:31.872Z,10.000000000000057
2022-10-17T01:37:31.909Z,10.000000000000057
2022-10-17T01:38:31.947Z,10.111111111111143
2022-10-17T01:39:32.513Z,10.111111111111143
2022-10-17T01:40:31.994Z,10.111111111111143
2022-10-17T01:41:32.061Z,10.111111111111143
2022-10-17T01:42:31.954Z,10.111111111111143
2022-10-17T01:43:31.377Z,10.111111111111143
2022-10-17T01:44:32.000Z,10.111111111111143
2022-10-17T01:45:32.112Z,10.111111111111143
2022-10-17T01:46:32.047Z,10.111111111111143
2022-10-17T01:47:31.691Z,10.111111111111143
2022-10-17T01:48:32.032Z,10.111111111111143
2022-10-17T01:49:31.899Z,10.222222222222229
2022-10-17T01:50:31.952Z,10.222222222222229
2022-10-17T01:51:31.186Z,10.222222222222229
2022-10-17T01:52:31.885Z,10.277777777777828
2022-10-17T01:53:31.874Z,10.277777777777828
2022-10-17T01:54:31.890Z,10.277777777777828
2022-10-17T01:55:31.154Z,10.277777777777828
2022-10-17T01:56:31.910Z,10.277777777777828
2022-10-17T01:57:31.893Z,10.277777777777828
2022-10-17T01:58:31.864Z,10.277777777777828
2022-10-17T01:59:31.185Z,10.277777777777828
2022-10-17T02:00:31.992Z,10.277777777777828
2022-10-17T02:01:31.929Z,10.277777777777828
2022-10-17T02:02:31.869Z,10.277777777777828
2022-10-17T02:03:31.193Z,10.277777777777828
2022-10-17T02:04:31.883Z,10.277777777777828
2022-10-17T02:05:31.883Z,10.277777777777828
2022-10-17T02:06:31.882Z,10.277777777777828
2022-10-17T02:07:31.305Z,10.277777777777828
2022-10-17T02:08:31.927Z,10.277777777777828
2022-10-17T02:09:31.956Z,10.277777777777828
2022-10-17T02:10:31.876Z,10.277777777777828
2022-10-17T02:11:31.204Z,10.277777777777828
2022-10-17T02:12:31.880Z,10.388888888888914
2022-10-17T02:13:31.881Z,10.388888888888914
2022-10-17T02:14:31.883Z,10.388888888888914
2022-10-17T02:15:31.162Z,10.388888888888914
2022-10-17T02:16:31.877Z,10.388888888888914
2022-10-17T02:17:31.901Z,10.388888888888914
2022-10-17T02:18:31.931Z,10.500000000000057
2022-10-17T02:19:31.167Z,10.388888888888914
2022-10-17T02:20:31.860Z,10.388888888888914
2022-10-17T02:21:31.868Z,10.500000000000057
2022-10-17T02:22:32.592Z,10.500000000000057
2022-10-17T02:23:31.950Z,10.500000000000057
2022-10-17T02:24:31.878Z,10.500000000000057
2022-10-17T02:25:31.870Z,10.500000000000057
2022-10-17T02:26:31.917Z,10.500000000000057
2022-10-17T02:27:31.856Z,10.388888888888914
2022-10-17T02:28:31.946Z,10.388888888888914
2022-10-17T02:29:31.904Z,10.388888888888914
2022-10-17T02:30:31.882Z,10.388888888888914
2022-10-17T02:31:31.166Z,10.388888888888914
2022-10-17T02:32:31.937Z,10.388888888888914
2022-10-17T02:33:31.855Z,10.388888888888914
2022-10-17T02:34:31.879Z,10.388888888888914
2022-10-17T02:35:31.122Z,10.277777777777828
2022-10-17T02:36:31.876Z,10.277777777777828
2022-10-17T02:37:31.901Z,10.277777777777828
2022-10-17T02:38:31.883Z,10.277777777777828
2022-10-17T02:39:31.159Z,10.222222222222229
2022-10-17T02:40:31.924Z,10.222222222222229
2022-10-17T02:41:31.881Z,10.222222222222229
2022-10-17T02:42:32.088Z,10.111111111111143
2022-10-17T02:43:31.870Z,10.111111111111143
2022-10-17T02:44:31.880Z,10.111111111111143
2022-10-17T02:45:31.868Z,10.111111111111143
2022-10-17T02:46:31.857Z,10.111111111111143
2022-10-17T02:47:31.843Z,10.111111111111143
2022-10-17T02:48:31.852Z,10.111111111111143
2022-10-17T02:49:31.888Z,10.111111111111143
2022-10-17T02:50:31.878Z,10.111111111111143
2022-10-17T02:51:31.845Z,10.111111111111143
2022-10-17T02:52:32.630Z,10.111111111111143
2022-10-17T02:53:31.884Z,10.000000000000057
2022-10-17T02:54:31.855Z,10.000000000000057
2022-10-17T02:55:31.841Z,10.000000000000057
2022-10-17T02:56:31.942Z,10.000000000000057
2022-10-17T02:57:31.897Z,10.000000000000057
2022-10-17T02:58:31.868Z,10.000000000000057
2022-10-17T02:59:31.919Z,10.000000000000057
2022-10-17T03:00:31.877Z,10.000000000000057
2022-10-17T03:01:31.977Z,10.000000000000057
2022-10-17T03:02:32.085Z,9.888888888888914
2022-10-17T03:03:31.849Z,9.888888888888914
2022-10-17T03:04:31.986Z,9.888888888888914
2022-10-17T03:05:31.876Z,9.888888888888914
2022-10-17T03:06:32.003Z,9.888888888888914
2022-10-17T03:07:31.906Z,9.888888888888914
2022-10-17T03:08:31.970Z,9.888888888888914
2022-10-17T03:09:31.881Z,9.777777777777828
2022-10-17T03:10:31.970Z,9.777777777777828
2022-10-17T03:11:32.088Z,9.777777777777828
2022-10-17T03:12:32.179Z,9.777777777777828
2022-10-17T03:13:34.999Z,9.777777777777828
2022-10-17T03:14:31.972Z,9.777777777777828
2022-10-17T03:15:32.005Z,9.777777777777828
2022-10-17T03:16:31.883Z,9.777777777777828
2022-10-17T03:17:31.960Z,9.777777777777828
2022-10-17T03:18:31.938Z,9.777777777777828
2022-10-17T03:19:31.962Z,9.777777777777828
2022-10-17T03:20:31.959Z,9.777777777777828
2022-10-17T03:21:31.945Z,9.722222222222285
2022-10-17T03:22:32.443Z,9.722222222222285
2022-10-17T03:23:31.927Z,9.722222222222285
2022-10-17T03:24:32.000Z,9.722222222222285
2022-10-17T03:25:32.041Z,9.722222222222285
2022-10-17T03:26:31.989Z,9.722222222222285
2022-10-17T03:27:32.491Z,9.722222222222285
2022-10-17T03:28:31.930Z,9.611111111111143
2022-10-17T03:29:31.950Z,9.611111111111143
2022-10-17T03:30:31.954Z,9.611111111111143
2022-10-17T03:31:31.890Z,9.722222222222285
2022-10-17T03:32:31.947Z,9.722222222222285
2022-10-17T03:33:32.012Z,9.722222222222285
2022-10-17T03:34:31.916Z,9.722222222222285
2022-10-17T03:35:32.128Z,9.722222222222285
2022-10-17T03:36:31.874Z,9.722222222222285
2022-10-17T03:37:32.245Z,9.722222222222285
2022-10-17T03:38:31.849Z,9.722222222222285
2022-10-17T03:39:31.879Z,9.722222222222285
2022-10-17T03:40:31.948Z,9.722222222222285
2022-10-17T03:41:32.032Z,9.722222222222285
2022-10-17T03:42:31.998Z,9.722222222222285
2022-10-17T03:43:31.982Z,9.611111111111143
2022-10-17T03:44:31.869Z,9.611111111111143
2022-10-17T03:45:31.860Z,9.611111111111143
2022-10-17T03:46:31.865Z,9.611111111111143
2022-10-17T03:47:32.240Z,9.611111111111143
2022-10-17T03:48:31.865Z,9.611111111111143
2022-10-17T03:49:31.858Z,9.611111111111143
2022-10-17T03:50:31.972Z,9.611111111111143
2022-10-17T03:51:31.904Z,9.611111111111143
2022-10-17T03:52:32.054Z,9.611111111111143
2022-10-17T03:53:31.859Z,9.611111111111143
2022-10-17T03:54:31.861Z,9.611111111111143
2022-10-17T03:55:31.890Z,9.611111111111143
2022-10-17T03:56:31.829Z,9.611111111111143
2022-10-17T03:57:32.124Z,9.611111111111143
2022-10-17T03:58:31.872Z,9.611111111111143
2022-10-17T03:59:31.974Z,9.611111111111143
2022-10-17T04:00:31.846Z,9.611111111111143
2022-10-17T04:01:32.071Z,9.611111111111143
2022-10-17T04:02:31.887Z,9.611111111111143
2022-10-17T04:03:31.869Z,9.611111111111143
2022-10-17T04:04:31.907Z,9.500000000000057
2022-10-17T04:05:32.002Z,9.500000000000057
2022-10-17T04:06:31.857Z,9.500000000000057
2022-10-17T04:07:31.815Z,9.500000000000057
2022-10-17T04:08:31.885Z,9.500000000000057
2022-10-17T04:09:31.836Z,9.500000000000057
2022-10-17T04:10:31.885Z,9.500000000000057
2022-10-17T04:11:32.027Z,9.500000000000057
2022-10-17T04:12:32.134Z,9.500000000000057
2022-10-17T04:13:31.878Z,9.500000000000057
2022-10-17T04:14:31.857Z,9.611111111111143
2022-10-17T04:15:31.845Z,9.611111111111143
2022-10-17T04:16:31.870Z,9.611111111111143
2022-10-17T04:17:35.883Z,9.611111111111143
2022-10-17T04:18:31.882Z,9.611111111111143
2022-10-17T04:19:31.823Z,9.611111111111143
2022-10-17T04:20:31.848Z,9.611111111111143
2022-10-17T04:21:31.861Z,9.611111111111143
2022-10-17T04:22:32.117Z,9.611111111111143
2022-10-17T04:23:31.840Z,9.611111111111143
2022-10-17T04:24:31.906Z,9.611111111111143
2022-10-17T04:25:34.680Z,9.611111111111143
2022-10-17T04:26:31.848Z,9.611111111111143
2022-10-17T04:27:31.851Z,9.611111111111143
2022-10-17T04:28:31.959Z,9.611111111111143
2022-10-17T04:29:31.849Z,9.611111111111143
2022-10-17T04:30:31.844Z,9.611111111111143
2022-10-17T04:31:31.867Z,9.611111111111143
2022-10-17T04:32:32.290Z,9.611111111111143
2022-10-17T04:33:31.867Z,9.611111111111143
2022-10-17T04:34:31.849Z,9.611111111111143
2022-10-17T04:35:31.832Z,9.611111111111143
2022-10-17T04:36:31.860Z,9.611111111111143
2022-10-17T04:37:31.884Z,9.611111111111143
2022-10-17T04:38:31.925Z,9.611111111111143
2022-10-17T04:39:31.850Z,9.611111111111143
2022-10-17T04:40:31.868Z,9.611111111111143
2022-10-17T04:41:32.104Z,9.611111111111143
2022-10-17T04:42:32.188Z,9.611111111111143
2022-10-17T04:43:31.839Z,9.611111111111143
2022-10-17T04:44:31.908Z,9.611111111111143
2022-10-17T04:45:31.965Z,9.611111111111143
2022-10-17T04:46:31.911Z,9.500000000000057
2022-10-17T04:47:31.817Z,9.500000000000057
2022-10-17T04:48:31.878Z,9.500000000000057
2022-10-17T04:49:31.993Z,9.500000000000057
2022-10-17T04:50:31.910Z,9.500000000000057
2022-10-17T04:51:31.839Z,9.500000000000057
2022-10-17T04:52:32.355Z,9.500000000000057
2022-10-17T04:53:31.847Z,9.500000000000057
2022-10-17T04:54:31.831Z,9.500000000000057
2022-10-17T04:55:31.829Z,9.500000000000057
2022-10-17T04:56:31.872Z,9.500000000000057
2022-10-17T04:57:31.855Z,9.500000000000057
2022-10-17T04:58:31.896Z,9.500000000000057
2022-10-17T04:59:31.830Z,9.500000000000057
2022-10-17T05:00:31.913Z,9.500000000000057
2022-10-17T05:01:31.879Z,9.500000000000057
2022-10-17T05:02:32.064Z,9.500000000000057
2022-10-17T05:03:31.840Z,9.500000000000057
2022-10-17T05:04:31.872Z,9.500000000000057
2022-10-17T05:05:31.840Z,9.500000000000057
2022-10-17T05:06:31.865Z,9.500000000000057
2022-10-17T05:07:31.875Z,9.500000000000057
2022-10-17T05:08:31.858Z,9.500000000000057
2022-10-17T05:09:31.838Z,9.500000000000057
2022-10-17T05:10:31.880Z,9.500000000000057
2022-10-17T05:11:31.866Z,9.500000000000057
2022-10-17T05:12:32.162Z,9.500000000000057
2022-10-17T05:13:31.857Z,9.500000000000057
2022-10-17T05:14:31.906Z,9.500000000000057
2022-10-17T05:15:31.853Z,9.388888888888914
2022-10-17T05:16:31.866Z,9.388888888888914
2022-10-17T05:17:31.848Z,9.388888888888914
2022-10-17T05:18:31.938Z,9.388888888888914
2022-10-17T05:19:32.105Z,9.388888888888914
2022-10-17T05:20:31.877Z,9.388888888888914
2022-10-17T05:22:32.171Z,9.388888888888914
2022-10-17T05:23:31.860Z,9.388888888888914
2022-10-17T05:24:31.957Z,9.388888888888914
2022-10-17T05:25:31.851Z,9.388888888888914
2022-10-17T05:26:31.855Z,9.388888888888914
2022-10-17T05:27:32.157Z,9.388888888888914
2022-10-17T05:28:32.106Z,9.388888888888914
2022-10-17T05:29:31.836Z,9.388888888888914
2022-10-17T05:30:35.215Z,9.388888888888914
2022-10-17T05:31:31.849Z,9.388888888888914
2022-10-17T05:32:32.200Z,9.388888888888914
2022-10-17T05:33:31.846Z,9.388888888888914
2022-10-17T05:34:31.863Z,9.388888888888914
2022-10-17T05:35:31.859Z,9.388888888888914
2022-10-17T05:36:31.847Z,9.388888888888914
2022-10-17T05:37:31.848Z,9.388888888888914
2022-10-17T05:38:31.869Z,9.277777777777828
2022-10-17T05:39:31.862Z,9.277777777777828
2022-10-17T05:40:31.867Z,9.277777777777828
2022-10-17T05:41:31.847Z,9.277777777777828
2022-10-17T05:42:32.453Z,9.277777777777828
2022-10-17T05:43:31.840Z,9.277777777777828
2022-10-17T05:44:31.863Z,9.277777777777828
2022-10-17T05:45:31.825Z,9.277777777777828
2022-10-17T05:46:31.845Z,9.222222222222285
2022-10-17T05:47:32.411Z,9.222222222222285
2022-10-17T05:48:32.013Z,9.222222222222285
2022-10-17T05:49:43.581Z,9.222222222222285
2022-10-17T05:50:31.863Z,9.222222222222285
2022-10-17T05:51:32.880Z,9.222222222222285
2022-10-17T05:52:32.189Z,9.222222222222285
2022-10-17T05:53:31.853Z,9.222222222222285
2022-10-17T05:54:31.857Z,9.222222222222285
2022-10-17T05:55:31.862Z,9.222222222222285
2022-10-17T05:56:31.857Z,9.277777777777828
2022-10-17T05:57:31.866Z,9.277777777777828
2022-10-17T05:58:49.375Z,9.222222222222285
2022-10-17T05:59:31.895Z,9.222222222222285
2022-10-17T06:00:32.066Z,9.222222222222285
2022-10-17T06:01:31.864Z,9.222222222222285
2022-10-17T06:02:32.253Z,9.222222222222285
2022-10-17T06:03:31.858Z,9.222222222222285
2022-10-17T06:04:31.837Z,9.222222222222285
2022-10-17T06:05:31.914Z,9.222222222222285
2022-10-17T06:06:31.844Z,9.222222222222285
2022-10-17T06:07:31.863Z,9.222222222222285
2022-10-17T06:08:31.848Z,9.277777777777828
2022-10-17T06:09:31.835Z,9.277777777777828
2022-10-17T06:10:31.833Z,9.277777777777828
2022-10-17T06:11:31.863Z,9.277777777777828
2022-10-17T06:12:32.138Z,9.277777777777828
2022-10-17T06:13:31.843Z,9.277777777777828
2022-10-17T06:14:31.825Z,9.277777777777828
2022-10-17T06:15:31.946Z,9.277777777777828
2022-10-17T06:16:31.861Z,9.277777777777828
2022-10-17T06:17:31.838Z,9.277777777777828
2022-10-17T06:18:31.802Z,9.277777777777828
2022-10-17T06:19:31.856Z,9.277777777777828
2022-10-17T06:20:31.862Z,9.388888888888914
2022-10-17T06:21:31.861Z,9.388888888888914
2022-10-17T06:22:32.203Z,9.388888888888914
2022-10-17T06:23:31.840Z,9.388888888888914
2022-10-17T06:24:31.966Z,9.388888888888914
2022-10-17T06:25:31.949Z,9.388888888888914
2022-10-17T06:26:31.812Z,9.388888888888914
2022-10-17T06:27:31.860Z,9.388888888888914
2022-10-17T06:28:31.899Z,9.388888888888914
2022-10-17T06:29:31.855Z,9.500000000000057
2022-10-17T06:30:31.814Z,9.500000000000057
2022-10-17T06:31:31.850Z,9.500000000000057
2022-10-17T06:32:32.067Z,9.500000000000057
2022-10-17T06:33:31.969Z,9.500000000000057
2022-10-17T06:34:31.821Z,9.500000000000057
2022-10-17T06:35:31.966Z,9.500000000000057
2022-10-17T06:36:31.898Z,9.500000000000057
2022-10-17T06:37:35.396Z,9.500000000000057
2022-10-17T06:38:31.828Z,9.500000000000057
2022-10-17T06:39:31.847Z,9.500000000000057
2022-10-17T06:40:31.854Z,9.500000000000057
2022-10-17T06:41:31.850Z,9.611111111111143
2022-10-17T06:42:31.813Z,9.611111111111143
2022-10-17T06:43:31.848Z,9.611111111111143
2022-10-17T06:44:31.860Z,9.611111111111143
2022-10-17T06:45:31.839Z,9.611111111111143
2022-10-17T06:46:32.081Z,9.722222222222285
2022-10-17T06:47:32.219Z,9.722222222222285
2022-10-17T06:48:32.853Z,9.722222222222285
2022-10-17T06:49:38.869Z,9.777777777777828
2022-10-17T06:50:42.935Z,9.777777777777828
2022-10-17T06:51:46.868Z,9.888888888888914
2022-10-17T06:52:50.877Z,9.888888888888914
2022-10-17T06:53:54.886Z,10.000000000000057
2022-10-17T06:54:58.957Z,10.000000000000057
2022-10-17T06:56:02.991Z,10.000000000000057
2022-10-17T06:57:06.881Z,10.000000000000057
2022-10-17T06:58:10.877Z,10.000000000000057
2022-10-17T06:59:14.835Z,10.000000000000057
2022-10-17T07:00:19.713Z,10.000000000000057
2022-10-17T07:01:22.890Z,10.000000000000057
2022-10-17T07:02:27.137Z,10.000000000000057
2022-10-17T07:03:30.851Z,10.222222222222229
2022-10-17T07:04:31.862Z,10.277777777777828
2022-10-17T07:05:31.866Z,10.388888888888914
2022-10-17T07:06:31.849Z,10.611111111111143
2022-10-17T07:07:32.024Z,10.722222222222285
2022-10-17T07:08:31.806Z,10.777777777777828
2022-10-17T07:09:31.889Z,10.777777777777828
2022-10-17T07:10:31.866Z,10.777777777777828
2022-10-17T07:11:31.852Z,10.722222222222285
2022-10-17T07:12:31.844Z,10.611111111111143
2022-10-17T07:13:34.467Z,10.500000000000057
2022-10-17T07:14:31.842Z,10.611111111111143
2022-10-17T07:15:32.009Z,10.611111111111143
2022-10-17T07:16:31.821Z,10.611111111111143
2022-10-17T07:17:32.183Z,10.722222222222285
2022-10-17T07:18:31.891Z,10.888888888888971
2022-10-17T07:19:31.851Z,10.888888888888971
2022-10-17T07:20:31.831Z,11.111111111111143
2022-10-17T07:21:35.246Z,11.111111111111143
2022-10-17T07:22:31.879Z,11.111111111111143
2022-10-17T07:23:31.846Z,11.111111111111143
2022-10-17T07:24:31.837Z,11.222222222222285
2022-10-17T07:25:34.142Z,11.222222222222285
2022-10-17T07:26:31.857Z,11.222222222222285
2022-10-17T07:27:32.135Z,11.277777777777828
2022-10-17T07:28:31.893Z,11.388888888888971
2022-10-17T07:29:31.845Z,11.500000000000057
2022-10-17T07:30:31.869Z,11.500000000000057
2022-10-17T07:31:31.881Z,11.500000000000057
2022-10-17T07:32:31.804Z,11.500000000000057
2022-10-17T07:33:31.837Z,11.500000000000057
2022-10-17T07:34:31.848Z,11.6111111111112
2022-10-17T07:35:31.845Z,11.722222222222229
2022-10-17T07:36:31.799Z,11.888888888888971
2022-10-17T07:37:32.284Z,11.888888888888971
2022-10-17T07:38:31.853Z,11.888888888888971
2022-10-17T07:39:31.845Z,11.777777777777828
2022-10-17T07:40:31.810Z,11.777777777777828
2022-10-17T07:41:31.870Z,11.888888888888971
2022-10-17T07:42:31.895Z,12.222222222222285
2022-10-17T07:43:31.843Z,12.222222222222285
2022-10-17T07:44:31.846Z,12.111111111111143
2022-10-17T07:45:31.844Z,12
2022-10-17T07:46:31.817Z,11.888888888888971
2022-10-17T07:47:32.188Z,12
2022-10-17T07:48:31.819Z,12
2022-10-17T07:49:31.945Z,12
2022-10-17T07:50:31.900Z,11.888888888888971
2022-10-17T07:51:31.861Z,12
2022-10-17T07:52:32.123Z,12.111111111111143
2022-10-17T07:53:31.843Z,12.111111111111143
2022-10-17T07:54:31.846Z,12.111111111111143
2022-10-17T07:55:31.859Z,12.111111111111143
2022-10-17T07:56:32.811Z,12.111111111111143
2022-10-17T07:57:31.837Z,12.111111111111143
2022-10-17T07:58:31.828Z,12.111111111111143
2022-10-17T07:59:31.974Z,12
2022-10-17T08:00:31.922Z,11.888888888888971
2022-10-17T08:01:31.858Z,11.888888888888971
2022-10-17T08:02:32.377Z,12.111111111111143
2022-10-17T08:03:31.874Z,12.111111111111143
2022-10-17T08:04:31.861Z,12.111111111111143
2022-10-17T08:05:31.830Z,12.111111111111143
2022-10-17T08:06:31.831Z,12.111111111111143
2022-10-17T08:07:32.035Z,12.222222222222285
2022-10-17T08:08:31.817Z,12.277777777777828
2022-10-17T08:09:31.864Z,12.277777777777828
2022-10-17T08:10:31.859Z,12.277777777777828
2022-10-17T08:11:31.858Z,12.277777777777828
2022-10-17T08:12:32.369Z,12.277777777777828
2022-10-17T08:13:31.860Z,12.222222222222285
2022-10-17T08:14:31.831Z,12
2022-10-17T08:15:32.208Z,12
2022-10-17T08:16:31.840Z,12.222222222222285
2022-10-17T08:17:31.835Z,12.277777777777828
2022-10-17T08:18:31.847Z,12.277777777777828
2022-10-17T08:19:31.837Z,12.277777777777828
2022-10-17T08:20:31.814Z,12.222222222222285
2022-10-17T08:21:31.844Z,12.222222222222285
2022-10-17T08:22:32.079Z,12.222222222222285
2022-10-17T08:23:31.861Z,12.111111111111143
2022-10-17T08:24:31.836Z,12.111111111111143
2022-10-17T08:25:31.843Z,12.222222222222285
2022-10-17T08:26:31.931Z,12.277777777777828
2022-10-17T08:27:31.848Z,12.388888888888914
2022-10-17T08:28:31.853Z,12.388888888888914
2022-10-17T08:29:31.827Z,12.388888888888914
2022-10-17T08:30:31.832Z,12.277777777777828
2022-10-17T08:31:31.829Z,12.277777777777828
2022-10-17T08:32:32.114Z,12.277777777777828
2022-10-17T08:33:31.849Z,12.222222222222285
2022-10-17T08:34:31.824Z,12.111111111111143
2022-10-17T08:35:31.875Z,12
2022-10-17T08:36:31.813Z,12
2022-10-17T08:37:32.275Z,12
2022-10-17T08:38:35.080Z,12
2022-10-17T08:39:31.846Z,12
2022-10-17T08:40:31.800Z,12
2022-10-17T08:41:31.843Z,12.111111111111143
2022-10-17T08:42:31.837Z,12.111111111111143
2022-10-17T08:43:35.387Z,12.222222222222285
2022-10-17T08:44:31.838Z,12.222222222222285
2022-10-17T08:45:31.826Z,12.222222222222285
2022-10-17T08:46:31.853Z,12.222222222222285
2022-10-17T08:47:32.030Z,12.277777777777828
2022-10-17T08:48:31.829Z,12.277777777777828
2022-10-17T08:49:31.828Z,12.277777777777828
2022-10-17T08:50:31.841Z,12.277777777777828
2022-10-17T08:51:31.856Z,12.500000000000057
2022-10-17T08:52:31.820Z,12.500000000000057
2022-10-17T08:53:31.857Z,12.611111111111143
2022-10-17T08:54:31.840Z,12.611111111111143
2022-10-17T08:55:31.852Z,12.722222222222285
2022-10-17T08:56:47.643Z,12.722222222222285
2022-10-17T08:57:32.559Z,12.777777777777828
2022-10-17T08:58:31.897Z,12.888888888888914
2022-10-17T08:59:31.830Z,12.888888888888914
2022-10-17T09:00:31.865Z,12.888888888888914
2022-10-17T09:01:31.856Z,12.888888888888914
2022-10-17T09:02:31.899Z,12.777777777777828
2022-10-17T09:03:31.932Z,12.777777777777828
2022-10-17T09:05:31.909Z,13.111111111111143
2022-10-17T09:06:31.837Z,13.111111111111143
2022-10-17T09:07:32.412Z,12.888888888888914
2022-10-17T09:08:31.808Z,12.888888888888914
2022-10-17T09:09:31.843Z,13.000000000000057
2022-10-17T09:10:31.841Z,13.000000000000057
2022-10-17T09:11:31.849Z,12.888888888888914
2022-10-17T09:12:32.091Z,12.777777777777828
2022-10-17T09:13:31.903Z,12.722222222222285
2022-10-17T09:14:31.845Z,12.722222222222285
2022-10-17T09:15:31.846Z,12.722222222222285
2022-10-17T09:16:31.870Z,12.777777777777828
2022-10-17T09:17:32.105Z,12.888888888888914
2022-10-17T09:18:31.825Z,13.000000000000057
2022-10-17T09:19:31.818Z,13.000000000000057
2022-10-17T09:20:31.778Z,13.000000000000057